Terminal Aerodrome Forecast
Issued by NWS Cleveland, OH

Home | Current Version | Previous Version | Text Only | Print | Product List | Glossary Off
Versions: 1 2 3 4 5 6 7 8 9 10 11 12 13 14 15 16

126
FTUS41 KCLE 181743
TAFCAK
TAF
KCAK 181743Z 1818/1918 22012G20KT P6SM SCT250
     FM190000 24007KT P6SM BKN250
     FM190900 26004KT 4SM BR SCT060 BKN250
     FM191400 26007KT P6SM BKN250=

USA.gov is the U.S. government's official web portal to all federal, state and local government web resources and services.